Time;durP1;ratioP1;P1;durP2;ratioP2;P2;SDS_P1;SDS_P2;PMS_P1;PMS_P2;Temp;Humidity;BMP_temperature;BMP_pressure;BME280_temperature;BME280_humidity;BME280_pressure;Samples;Min_cycle;Max_cycle;Signal;HPM_P1;HPM_P2
2022/02/15 00:01:55;;;;;;;1.87;1.20;;;;;;;;;;5069182;28;20205;-67
2022/02/15 00:04:24;;;;;;;2.67;1.60;;;;;;;;;;5066278;28;20205;-67
2022/02/15 00:06:53;;;;;;;1.73;1.23;;;;;;;;;;5073899;28;20237;-67
2022/02/15 00:09:27;;;;;;;1.63;1.20;;;;;;;;;;5065349;28;20239;-67
2022/02/15 00:12:00;;;;;;;1.90;1.30;;;;;;;;;;5066795;28;20773;-67
2022/02/15 00:14:30;;;;;;;1.83;1.10;;;;;;;;;;5060988;28;20519;-67
2022/02/15 00:16:57;;;;;;;2.10;1.37;;;;;;;;;;5065948;28;20214;-67
2022/02/15 00:19:29;;;;;;;1.87;1.27;;;;;;;;;;5063485;28;20222;-67
2022/02/15 00:22:00;;;;;;;1.80;1.33;;;;;;;;;;5072226;28;20265;-67
2022/02/15 00:24:37;;;;;;;2.70;1.13;;;;;;;;;;5065745;28;20205;-67
2022/02/15 00:27:07;;;;;;;4.10;1.40;;;;;;;;;;5066342;28;20644;-68
2022/02/15 00:29:43;;;;;;;1.93;1.10;;;;;;;;;;5068897;28;20210;-67
2022/02/15 00:32:14;;;;;;;1.77;1.40;;;;;;;;;;5062110;28;20231;-67
2022/02/15 00:34:45;;;;;;;2.60;1.33;;;;;;;;;;5061550;28;20198;-66
2022/02/15 00:37:17;;;;;;;1.87;1.27;;;;;;;;;;5065856;28;20621;-67
2022/02/15 00:39:48;;;;;;;2.13;1.40;;;;;;;;;;5065992;28;20229;-67
2022/02/15 00:42:19;;;;;;;2.27;1.23;;;;;;;;;;5040069;28;20206;-67
2022/02/15 00:44:48;;;;;;;2.27;1.20;;;;;;;;;;5062332;28;20213;-67
2022/02/15 00:47:18;;;;;;;1.53;1.20;;;;;;;;;;5065254;28;20247;-67
2022/02/15 00:49:47;;;;;;;2.10;1.30;;;;;;;;;;5048366;28;20297;-67
2022/02/15 00:52:17;;;;;;;1.83;1.47;;;;;;;;;;5064122;28;20244;-67
2022/02/15 00:54:49;;;;;;;2.10;1.20;;;;;;;;;;5043394;28;20728;-67
2022/02/15 00:57:25;;;;;;;1.67;1.00;;;;;;;;;;5065553;28;20202;-68
2022/02/15 01:00:11;;;;;;;2.93;1.10;;;;;;;;;;5050884;28;20675;-67
2022/02/15 01:02:43;;;;;;;4.00;1.17;;;;;;;;;;5062903;28;20213;-67
2022/02/15 01:05:29;;;;;;;1.63;1.17;;;;;;;;;;5052296;28;20255;-67
2022/02/15 01:08:00;;;;;;;1.80;1.00;;;;;;;;;;5051435;28;20209;-67
2022/02/15 01:10:31;;;;;;;2.80;1.10;;;;;;;;;;5059317;28;20224;-67
2022/02/15 01:13:04;;;;;;;1.27;0.90;;;;;;;;;;5067460;28;20711;-67
2022/02/15 01:15:36;;;;;;;2.07;1.10;;;;;;;;;;5065654;28;20204;-67
2022/02/15 01:18:09;;;;;;;2.53;1.10;;;;;;;;;;5066356;28;20739;-66
2022/02/15 01:20:39;;;;;;;1.60;1.10;;;;;;;;;;5059618;28;20240;-67
2022/02/15 01:23:10;;;;;;;2.10;1.00;;;;;;;;;;5066013;28;20288;-67
2022/02/15 01:25:41;;;;;;;1.27;1.07;;;;;;;;;;5048485;28;20217;-67
2022/02/15 01:28:11;;;;;;;1.63;1.07;;;;;;;;;;5069098;28;20213;-67
2022/02/15 01:30:47;;;;;;;1.73;1.10;;;;;;;;;;5024959;28;20198;-67
2022/02/15 01:33:32;;;;;;;2.90;1.53;;;;;;;;;;5047385;28;20251;-67
2022/02/15 01:36:03;;;;;;;1.97;1.30;;;;;;;;;;5052757;28;20233;-67
2022/02/15 01:38:35;;;;;;;1.50;1.10;;;;;;;;;;5062731;28;20205;-67
2022/02/15 01:41:08;;;;;;;2.77;1.23;;;;;;;;;;5066919;28;20575;-68
2022/02/15 01:43:42;;;;;;;1.70;1.00;;;;;;;;;;5046749;28;20681;-68
2022/02/15 01:46:13;;;;;;;1.47;1.00;;;;;;;;;;5046937;28;20208;-67
2022/02/15 01:48:46;;;;;;;1.90;1.17;;;;;;;;;;5065798;28;20190;-67
2022/02/15 01:51:16;;;;;;;2.37;1.10;;;;;;;;;;5065121;28;20213;-67
2022/02/15 01:53:47;;;;;;;1.83;1.20;;;;;;;;;;5064226;28;20205;-67
2022/02/15 01:56:17;;;;;;;1.30;1.03;;;;;;;;;;5064443;28;20217;-67
2022/02/15 01:58:48;;;;;;;1.47;1.00;;;;;;;;;;5058426;28;20195;-66
2022/02/15 02:01:21;;;;;;;1.23;1.13;;;;;;;;;;5063659;28;20221;-66
2022/02/15 02:03:51;;;;;;;2.23;1.30;;;;;;;;;;5064883;28;20590;-66
2022/02/15 02:06:25;;;;;;;1.60;1.10;;;;;;;;;;5047664;28;20197;-66
2022/02/15 02:08:56;;;;;;;1.40;1.10;;;;;;;;;;5066486;28;20193;-66
2022/02/15 02:11:29;;;;;;;1.40;1.10;;;;;;;;;;5055835;28;20518;-66
2022/02/15 02:13:59;;;;;;;2.53;1.10;;;;;;;;;;5061865;28;20216;-66
2022/02/15 02:16:37;;;;;;;1.37;1.00;;;;;;;;;;5064912;28;20274;-67
2022/02/15 02:19:07;;;;;;;1.57;1.03;;;;;;;;;;5061494;28;20266;-66
2022/02/15 02:21:43;;;;;;;1.50;1.03;;;;;;;;;;5061641;28;20291;-66
2022/02/15 02:24:12;;;;;;;2.23;1.10;;;;;;;;;;5063671;28;20214;-66
2022/02/15 02:26:44;;;;;;;1.70;1.20;;;;;;;;;;5067446;28;20193;-67
2022/02/15 02:29:14;;;;;;;2.27;1.03;;;;;;;;;;5066302;28;20223;-66
2022/02/15 02:31:46;;;;;;;1.90;1.30;;;;;;;;;;5060953;28;20235;-67
2022/02/15 02:34:18;;;;;;;2.30;1.30;;;;;;;;;;5048202;28;20205;-67
2022/02/15 02:36:50;;;;;;;2.17;1.07;;;;;;;;;;5063146;28;20522;-66
2022/02/15 02:39:23;;;;;;;3.00;1.30;;;;;;;;;;5049514;28;20217;-66
2022/02/15 02:41:56;;;;;;;2.13;1.30;;;;;;;;;;5066524;28;20252;-66
2022/02/15 02:44:23;;;;;;;1.20;1.00;;;;;;;;;;5060539;28;20233;-66
2022/02/15 02:46:58;;;;;;;2.00;1.10;;;;;;;;;;5065071;28;20212;-66
2022/02/15 02:49:25;;;;;;;4.50;1.03;;;;;;;;;;5030459;28;20213;-66
2022/02/15 02:51:54;;;;;;;1.93;0.90;;;;;;;;;;5064769;28;20216;-67
2022/02/15 02:54:25;;;;;;;1.30;0.90;;;;;;;;;;5067198;28;20208;-66
2022/02/15 02:56:55;;;;;;;1.80;1.10;;;;;;;;;;5043426;28;20628;-66
2022/02/15 02:59:31;;;;;;;1.33;1.10;;;;;;;;;;5064306;28;20194;-66
2022/02/15 03:02:03;;;;;;;1.30;0.97;;;;;;;;;;5068960;28;20208;-66
2022/02/15 03:04:32;;;;;;;1.50;1.10;;;;;;;;;;5063591;28;20645;-66
2022/02/15 03:07:05;;;;;;;1.83;1.10;;;;;;;;;;5061500;28;20218;-66
2022/02/15 03:09:35;;;;;;;1.73;0.90;;;;;;;;;;5048923;28;20189;-67
2022/02/15 03:12:05;;;;;;;1.53;1.20;;;;;;;;;;5065470;28;20210;-66
2022/02/15 03:14:34;;;;;;;1.10;0.87;;;;;;;;;;5029690;28;20186;-66
2022/02/15 03:17:07;;;;;;;1.60;1.10;;;;;;;;;;5041573;28;20196;-66
2022/02/15 03:19:38;;;;;;;2.93;1.30;;;;;;;;;;5060586;28;20209;-66
2022/02/15 03:22:19;;;;;;;1.63;1.17;;;;;;;;;;5030207;28;20311;-66
2022/02/15 03:24:47;;;;;;;1.53;1.07;;;;;;;;;;5039074;28;20635;-66
2022/02/15 03:27:17;;;;;;;1.20;0.90;;;;;;;;;;5028124;28;20210;-66
2022/02/15 03:29:44;;;;;;;0.90;0.80;;;;;;;;;;5047772;28;20205;-66
2022/02/15 03:32:14;;;;;;;1.47;1.10;;;;;;;;;;5030741;28;20229;-66
2022/02/15 03:34:44;;;;;;;1.40;0.90;;;;;;;;;;5040992;28;20199;-66
2022/02/15 03:37:16;;;;;;;1.20;1.10;;;;;;;;;;5030882;28;20680;-66
2022/02/15 03:39:47;;;;;;;1.40;0.97;;;;;;;;;;5050857;28;20189;-66
2022/02/15 03:45:11;;;;;;;1.93;1.33;;;;;;;;;;5036977;28;20277;-66
2022/02/15 03:47:42;;;;;;;1.50;1.00;;;;;;;;;;5046492;28;20217;-66
2022/02/15 03:50:11;;;;;;;1.10;0.90;;;;;;;;;;5046766;28;20210;-66
2022/02/15 03:52:42;;;;;;;1.33;0.97;;;;;;;;;;5042870;28;20214;-66
2022/02/15 03:55:12;;;;;;;1.60;1.10;;;;;;;;;;5045618;28;20229;-67
2022/02/15 03:57:43;;;;;;;1.63;1.10;;;;;;;;;;5048278;28;20210;-66
2022/02/15 04:00:12;;;;;;;1.10;1.00;;;;;;;;;;5048293;28;20210;-66
2022/02/15 04:02:50;;;;;;;1.40;0.90;;;;;;;;;;5045273;28;20230;-66
2022/02/15 04:05:24;;;;;;;1.03;0.93;;;;;;;;;;5042891;28;20210;-66
2022/02/15 04:07:54;;;;;;;1.97;1.20;;;;;;;;;;5043405;28;20293;-66
2022/02/15 04:10:32;;;;;;;1.60;1.30;;;;;;;;;;5040327;28;20720;-66
2022/02/15 04:13:03;;;;;;;1.20;1.10;;;;;;;;;;5044686;28;20222;-66
2022/02/15 04:15:34;;;;;;;1.60;1.17;;;;;;;;;;5041039;28;20624;-66
2022/02/15 04:18:07;;;;;;;2.23;1.23;;;;;;;;;;5047283;28;20656;-66
2022/02/15 04:20:50;;;;;;;1.60;1.27;;;;;;;;;;5032412;28;20221;-66
2022/02/15 04:23:18;;;;;;;1.57;1.10;;;;;;;;;;5057412;28;20220;-66
2022/02/15 04:25:51;;;;;;;1.40;1.20;;;;;;;;;;5050959;28;20330;-66
2022/02/15 04:28:22;;;;;;;1.37;1.00;;;;;;;;;;5064441;28;20221;-66
2022/02/15 04:30:53;;;;;;;1.50;1.20;;;;;;;;;;5063236;28;20299;-66
2022/02/15 04:33:26;;;;;;;0.93;0.93;;;;;;;;;;5067889;28;20233;-66
2022/02/15 04:35:53;;;;;;;1.03;0.87;;;;;;;;;;5067668;28;20204;-66
2022/02/15 04:38:23;;;;;;;1.30;1.20;;;;;;;;;;5064414;28;20206;-65
2022/02/15 04:40:52;;;;;;;1.40;1.10;;;;;;;;;;5063448;28;20190;-65
2022/02/15 04:43:25;;;;;;;3.03;1.93;;;;;;;;;;5057231;28;20214;-66
2022/02/15 04:45:55;;;;;;;2.07;1.50;;;;;;;;;;5065362;28;20231;-66
2022/02/15 04:48:27;;;;;;;1.87;1.30;;;;;;;;;;5047024;28;20585;-66
2022/02/15 04:50:57;;;;;;;1.47;1.27;;;;;;;;;;5064627;28;20198;-66
2022/02/15 04:53:29;;;;;;;1.20;1.10;;;;;;;;;;5064149;28;20224;-66
2022/02/15 04:56:03;;;;;;;2.47;1.23;;;;;;;;;;5062155;28;20907;-66
2022/02/15 04:58:34;;;;;;;3.40;1.10;;;;;;;;;;5064414;28;20222;-66
2022/02/15 05:01:06;;;;;;;2.83;1.07;;;;;;;;;;5066152;28;20190;-67
2022/02/15 05:03:51;;;;;;;2.63;1.10;;;;;;;;;;5065301;28;20316;-66
2022/02/15 05:06:21;;;;;;;1.40;1.30;;;;;;;;;;5036201;28;20201;-66
2022/02/15 05:08:50;;;;;;;2.83;1.20;;;;;;;;;;5060913;28;20206;-66
2022/02/15 05:11:21;;;;;;;2.17;1.40;;;;;;;;;;5067714;28;20603;-66
2022/02/15 05:14:07;;;;;;;2.60;1.30;;;;;;;;;;5066942;28;20210;-66
2022/02/15 05:16:38;;;;;;;2.07;1.13;;;;;;;;;;5063687;28;20289;-66
2022/02/15 05:19:06;;;;;;;2.13;1.10;;;;;;;;;;5053497;28;24035;-66
2022/02/15 05:21:37;;;;;;;1.50;1.37;;;;;;;;;;5064609;28;20229;-66
2022/02/15 05:24:08;;;;;;;1.83;1.20;;;;;;;;;;5064582;28;21091;-66
2022/02/15 05:26:38;;;;;;;1.90;1.70;;;;;;;;;;5045071;28;20213;-66
2022/02/15 05:29:07;;;;;;;1.87;1.50;;;;;;;;;;5044598;28;20298;-66
2022/02/15 05:31:51;;;;;;;3.47;1.70;;;;;;;;;;5048824;28;20249;-66
2022/02/15 05:34:22;;;;;;;2.47;1.77;;;;;;;;;;5066430;28;20229;-66
2022/02/15 05:36:50;;;;;;;1.87;1.67;;;;;;;;;;5063825;28;20249;-66
2022/02/15 05:39:23;;;;;;;2.37;2.07;;;;;;;;;;5066571;28;20251;-66
2022/02/15 05:41:53;;;;;;;2.87;1.60;;;;;;;;;;5067737;28;20236;-66
2022/02/15 05:44:22;;;;;;;1.87;1.50;;;;;;;;;;5060008;28;20224;-66
2022/02/15 05:46:54;;;;;;;2.17;1.70;;;;;;;;;;5046762;28;20198;-66
2022/02/15 05:49:23;;;;;;;4.03;1.80;;;;;;;;;;5063703;28;20893;-66
2022/02/15 05:51:55;;;;;;;2.20;1.73;;;;;;;;;;5061673;28;20490;-66
2022/02/15 05:54:38;;;;;;;2.17;1.80;;;;;;;;;;5038195;28;20290;-67
2022/02/15 05:57:11;;;;;;;3.30;1.67;;;;;;;;;;5066137;28;20627;-66
2022/02/15 05:59:40;;;;;;;1.70;1.60;;;;;;;;;;5065580;28;20201;-66
2022/02/15 06:02:11;;;;;;;1.67;1.53;;;;;;;;;;5049222;28;20205;-66
2022/02/15 06:04:42;;;;;;;2.30;1.97;;;;;;;;;;5064752;28;20202;-66
2022/02/15 06:07:14;;;;;;;2.20;1.73;;;;;;;;;;5058311;28;20615;-66
2022/02/15 06:09:48;;;;;;;2.40;1.60;;;;;;;;;;5052114;28;20188;-66
2022/02/15 06:12:27;;;;;;;1.93;1.70;;;;;;;;;;5045008;28;20224;-66
2022/02/15 06:15:17;;;;;;;1.57;1.27;;;;;;;;;;5063685;28;20217;-66
2022/02/15 06:18:15;;;;;;;3.30;1.90;;;;;;;;;;5067727;28;20628;-66
2022/02/15 06:21:14;;;;;;;3.93;1.83;;;;;;;;;;5047570;28;20236;-70
2022/02/15 06:24:27;;;;;;;1.87;1.63;;;;;;;;;;5054233;28;20197;-66
2022/02/15 06:27:23;;;;;;;2.37;1.87;;;;;;;;;;5067701;28;20689;-66
2022/02/15 06:30:28;;;;;;;3.30;1.90;;;;;;;;;;5038874;28;20232;-66
2022/02/15 06:33:25;;;;;;;3.70;1.90;;;;;;;;;;5050596;28;20262;-66
2022/02/15 06:36:23;;;;;;;4.17;1.93;;;;;;;;;;5064303;28;20213;-66
2022/02/15 06:39:19;;;;;;;19.93;4.70;;;;;;;;;;5067009;28;20542;-71
2022/02/15 06:42:14;;;;;;;19.03;5.57;;;;;;;;;;5066684;28;20338;-65
2022/02/15 06:45:17;;;;;;;20.67;6.87;;;;;;;;;;5062744;28;20210;-64
2022/02/15 06:48:21;;;;;;;120.33;23.77;;;;;;;;;;5053019;28;20252;-65
2022/02/15 06:51:09;;;;;;;96.80;22.33;;;;;;;;;;5047646;28;20201;-65
2022/02/15 06:54:20;;;;;;;89.57;20.93;;;;;;;;;;5066527;28;20260;-65
2022/02/15 06:57:21;;;;;;;91.07;20.80;;;;;;;;;;5064041;28;20558;-66
2022/02/15 07:00:20;;;;;;;71.83;17.93;;;;;;;;;;5036816;28;20335;-66
2022/02/15 07:03:26;;;;;;;61.90;16.37;;;;;;;;;;5063070;28;20282;-66
2022/02/15 07:06:16;;;;;;;51.60;14.67;;;;;;;;;;5059086;28;20248;-66
2022/02/15 07:09:26;;;;;;;41.40;13.83;;;;;;;;;;5066470;28;20301;-66
2022/02/15 07:12:29;;;;;;;48.97;14.00;;;;;;;;;;5066232;28;20300;-66
2022/02/15 07:15:20;;;;;;;32.43;11.43;;;;;;;;;;5050282;28;20210;-66
2022/02/15 07:18:26;;;;;;;37.57;11.40;;;;;;;;;;5070463;28;20225;-66
2022/02/15 07:21:37;;;;;;;34.37;11.03;;;;;;;;;;5058741;28;20259;-66
2022/02/15 07:24:39;;;;;;;28.03;10.00;;;;;;;;;;5070180;28;20662;-66
2022/02/15 07:27:44;;;;;;;33.17;10.60;;;;;;;;;;5050507;28;20216;-65
2022/02/15 07:30:41;;;;;;;25.07;9.33;;;;;;;;;;5031531;28;20203;-67
2022/02/15 07:33:39;;;;;;;18.93;8.93;;;;;;;;;;5041707;28;20217;-66
2022/02/15 07:36:38;;;;;;;20.50;7.73;;;;;;;;;;5042852;28;20417;-66
2022/02/15 07:39:44;;;;;;;23.13;7.40;;;;;;;;;;5051430;28;20208;-67
2022/02/15 07:42:40;;;;;;;18.53;7.33;;;;;;;;;;5045652;28;20228;-64
2022/02/15 07:45:43;;;;;;;17.80;6.60;;;;;;;;;;5049563;28;20827;-65
2022/02/15 07:48:40;;;;;;;16.17;6.33;;;;;;;;;;5039848;28;20203;-65
2022/02/15 07:51:41;;;;;;;12.83;5.83;;;;;;;;;;5044168;28;20194;-65
2022/02/15 07:54:45;;;;;;;15.33;6.60;;;;;;;;;;5048034;28;20222;-65
2022/02/15 07:57:42;;;;;;;13.60;6.00;;;;;;;;;;5048034;28;20274;-65
2022/02/15 08:00:39;;;;;;;11.63;5.60;;;;;;;;;;5043509;28;20220;-65
2022/02/15 08:03:41;;;;;;;9.90;4.57;;;;;;;;;;5040702;28;20276;-65
2022/02/15 08:06:37;;;;;;;14.07;5.60;;;;;;;;;;5058153;28;20289;-65
2022/02/15 08:09:34;;;;;;;10.90;5.03;;;;;;;;;;5051687;28;20240;-65
2022/02/15 08:12:38;;;;;;;10.30;4.30;;;;;;;;;;5050394;28;20202;-65
2022/02/15 08:15:44;;;;;;;9.73;4.50;;;;;;;;;;5044406;28;20556;-65
2022/02/15 08:18:44;;;;;;;9.07;5.03;;;;;;;;;;5041887;28;20248;-65
2022/02/15 08:21:42;;;;;;;9.90;4.13;;;;;;;;;;5043429;28;20313;-65
2022/02/15 08:24:56;;;;;;;9.50;4.47;;;;;;;;;;5039845;28;20198;-64
2022/02/15 08:27:59;;;;;;;8.30;4.50;;;;;;;;;;5023388;28;20207;-64
2022/02/15 08:30:55;;;;;;;6.40;3.80;;;;;;;;;;5026397;28;20215;-65
2022/02/15 08:33:53;;;;;;;8.27;3.97;;;;;;;;;;5012895;28;20231;-65
2022/02/15 08:36:53;;;;;;;9.60;4.37;;;;;;;;;;5029640;28;20253;-65
2022/02/15 08:39:50;;;;;;;5.60;3.40;;;;;;;;;;5041220;28;20285;-64
2022/02/15 08:42:48;;;;;;;6.90;3.97;;;;;;;;;;5022243;28;20294;-64
2022/02/15 08:45:47;;;;;;;7.80;3.77;;;;;;;;;;5028414;28;21051;-65
2022/02/15 08:48:53;;;;;;;6.93;3.83;;;;;;;;;;5023523;28;20218;-64
2022/02/15 08:51:43;;;;;;;5.30;3.23;;;;;;;;;;5030968;28;20211;-65
2022/02/15 08:54:52;;;;;;;6.63;3.50;;;;;;;;;;5038476;28;20255;-64
2022/02/15 08:57:43;;;;;;;5.07;2.80;;;;;;;;;;5047670;28;20220;-64
2022/02/15 09:00:48;;;;;;;4.60;3.30;;;;;;;;;;5035648;28;20214;-65
2022/02/15 09:03:43;;;;;;;4.70;3.00;;;;;;;;;;5045483;28;20445;-65
2022/02/15 09:06:51;;;;;;;4.83;2.57;;;;;;;;;;5049907;28;20279;-65
2022/02/15 09:09:39;;;;;;;4.63;2.70;;;;;;;;;;5053791;28;20219;-66
2022/02/15 09:12:42;;;;;;;6.90;2.90;;;;;;;;;;5048607;28;20268;-65
2022/02/15 09:15:46;;;;;;;5.23;2.63;;;;;;;;;;5043906;28;20233;-65
2022/02/15 09:19:06;;;;;;;5.57;2.40;;;;;;;;;;5045199;28;20589;-66
2022/02/15 09:22:00;;;;;;;2.60;2.10;;;;;;;;;;5055218;28;20238;-66
2022/02/15 09:25:13;;;;;;;3.60;2.50;;;;;;;;;;5044370;28;20213;-66
2022/02/15 09:28:09;;;;;;;3.20;2.33;;;;;;;;;;5048161;28;20620;-65
2022/02/15 09:31:14;;;;;;;4.80;2.40;;;;;;;;;;5047583;28;20217;-66
2022/02/15 09:34:16;;;;;;;7.40;2.63;;;;;;;;;;5053592;28;20225;-66
2022/02/15 09:37:14;;;;;;;3.53;2.50;;;;;;;;;;5035682;28;20209;-65
2022/02/15 09:40:18;;;;;;;3.03;2.10;;;;;;;;;;5038014;28;20198;-65
2022/02/15 09:43:20;;;;;;;3.17;2.00;;;;;;;;;;5043481;28;20551;-66
2022/02/15 09:46:20;;;;;;;4.07;2.40;;;;;;;;;;5038245;28;20814;-66
2022/02/15 09:52:58;;;;;;;3.60;2.00;;;;;;;;;;5030004;28;20198;-66
2022/02/15 09:55:54;;;;;;;3.33;2.00;;;;;;;;;;5048654;28;20213;-65
2022/02/15 09:59:04;;;;;;;2.50;2.00;;;;;;;;;;5044536;28;20644;-66
2022/02/15 10:02:06;;;;;;;2.63;1.97;;;;;;;;;;5044735;28;20209;-65
2022/02/15 10:05:03;;;;;;;3.33;2.47;;;;;;;;;;5047027;28;20217;-65
2022/02/15 10:08:14;;;;;;;4.33;1.90;;;;;;;;;;5040433;28;20202;-65
2022/02/15 10:11:18;;;;;;;3.67;2.30;;;;;;;;;;5040910;28;20546;-66
2022/02/15 10:54:11;;;;;;;4.03;2.33;;;;;;;;;;4645961;27;11946984;-66
2022/02/15 10:57:12;;;;;;;5.93;2.77;;;;;;;;;;5052764;28;20271;-68
2022/02/15 11:00:16;;;;;;;5.47;2.27;;;;;;;;;;5037953;28;20202;-68
2022/02/15 11:03:21;;;;;;;4.33;2.20;;;;;;;;;;5056063;28;20224;-67
2022/02/15 11:06:26;;;;;;;3.23;2.33;;;;;;;;;;5050845;28;20217;-64
2022/02/15 11:09:30;;;;;;;3.93;2.30;;;;;;;;;;5040228;28;20190;-65
2022/02/15 11:12:52;;;;;;;2.27;1.90;;;;;;;;;;5057171;28;20224;-70
2022/02/15 11:15:56;;;;;;;3.10;1.80;;;;;;;;;;5051443;28;20209;-67
2022/02/15 11:18:59;;;;;;;4.47;1.90;;;;;;;;;;5050403;28;20301;-66
2022/02/15 11:21:57;;;;;;;2.43;1.70;;;;;;;;;;5040855;28;20214;-69
2022/02/15 11:25:06;;;;;;;2.50;1.77;;;;;;;;;;5055862;28;20202;-69
2022/02/15 11:28:25;;;;;;;2.07;1.40;;;;;;;;;;5064878;28;20200;-65
2022/02/15 11:31:41;;;;;;;2.53;1.90;;;;;;;;;;5055889;28;20190;-66
2022/02/15 11:34:49;;;;;;;3.43;1.47;;;;;;;;;;5061270;28;20198;-66
2022/02/15 11:37:47;;;;;;;2.70;1.37;;;;;;;;;;5043323;28;20691;-66
2022/02/15 11:41:08;;;;;;;2.23;1.27;;;;;;;;;;5056147;28;20198;-67
2022/02/15 11:44:08;;;;;;;2.00;1.20;;;;;;;;;;5058567;28;20210;-68
2022/02/15 11:47:35;;;;;;;2.53;1.33;;;;;;;;;;5060345;28;20289;-65
2022/02/15 11:50:36;;;;;;;3.00;1.37;;;;;;;;;;5047613;28;20687;-64
2022/02/15 11:53:46;;;;;;;2.03;1.40;;;;;;;;;;5042708;27;20221;-66
2022/02/15 11:56:55;;;;;;;1.87;1.33;;;;;;;;;;5041413;28;20198;-67
2022/02/15 11:59:53;;;;;;;3.07;1.13;;;;;;;;;;5034518;28;20283;-67
2022/02/15 12:03:00;;;;;;;1.70;1.17;;;;;;;;;;5024032;28;20241;-67
2022/02/15 12:05:58;;;;;;;2.37;1.30;;;;;;;;;;5027762;28;20305;-66
2022/02/15 12:09:08;;;;;;;3.87;1.40;;;;;;;;;;5044932;28;20218;-67
2022/02/15 12:11:59;;;;;;;2.07;1.07;;;;;;;;;;5031737;28;20209;-68
2022/02/15 12:15:06;;;;;;;2.10;1.20;;;;;;;;;;5033740;28;20220;-66
2022/02/15 12:17:55;;;;;;;2.13;1.10;;;;;;;;;;5035592;28;20218;-67
2022/02/15 12:21:00;;;;;;;2.63;1.00;;;;;;;;;;5023661;28;20210;-66
2022/02/15 12:23:59;;;;;;;2.37;1.00;;;;;;;;;;5041537;28;20279;-65
2022/02/15 12:26:59;;;;;;;3.10;1.37;;;;;;;;;;5038673;28;20201;-67
2022/02/15 12:29:57;;;;;;;2.37;1.20;;;;;;;;;;5012032;28;20273;-68
2022/02/15 12:33:00;;;;;;;2.40;1.37;;;;;;;;;;5035362;28;20213;-67
2022/02/15 12:36:03;;;;;;;2.43;1.00;;;;;;;;;;5040882;28;20301;-67
2022/02/15 12:39:20;;;;;;;2.70;1.20;;;;;;;;;;5040388;28;20582;-65
2022/02/15 12:42:16;;;;;;;2.37;1.07;;;;;;;;;;5038964;28;20226;-66
2022/02/15 12:45:22;;;;;;;1.87;1.13;;;;;;;;;;5039031;28;20641;-65
2022/02/15 12:48:20;;;;;;;2.33;1.23;;;;;;;;;;5043695;28;21820;-67
2022/02/15 12:51:21;;;;;;;2.40;1.50;;;;;;;;;;5036259;28;20198;-67
2022/02/15 12:54:32;;;;;;;3.67;1.20;;;;;;;;;;5031575;28;20291;-67
2022/02/15 12:57:31;;;;;;;1.87;1.20;;;;;;;;;;5030857;28;20299;-65
2022/02/15 13:00:32;;;;;;;2.93;1.10;;;;;;;;;;5026528;28;20784;-66
2022/02/15 13:03:42;;;;;;;3.97;0.90;;;;;;;;;;5022428;28;20364;-66
2022/02/15 13:06:47;;;;;;;3.73;1.40;;;;;;;;;;5032334;28;20210;-65
2022/02/15 13:09:53;;;;;;;4.43;1.70;;;;;;;;;;5040388;28;20198;-65
2022/02/15 13:12:50;;;;;;;1.73;1.13;;;;;;;;;;5038069;28;20216;-64
2022/02/15 13:15:59;;;;;;;2.73;1.40;;;;;;;;;;5037859;28;20207;-66
2022/02/15 13:19:07;;;;;;;2.47;1.13;;;;;;;;;;5015527;28;20423;-67
2022/02/15 13:22:16;;;;;;;4.27;1.33;;;;;;;;;;5028389;28;20229;-67
2022/02/15 13:25:25;;;;;;;1.83;1.00;;;;;;;;;;5038152;28;20198;-64
2022/02/15 13:28:34;;;;;;;2.13;1.17;;;;;;;;;;5034329;28;20233;-65
2022/02/15 13:31:46;;;;;;;3.30;1.37;;;;;;;;;;5040597;28;20210;-66
2022/02/15 13:34:47;;;;;;;2.27;1.37;;;;;;;;;;5036944;28;20210;-67
2022/02/15 13:38:05;;;;;;;1.83;1.13;;;;;;;;;;5031712;28;20207;-66
2022/02/15 13:41:02;;;;;;;2.30;1.07;;;;;;;;;;5037781;28;20738;-67
2022/02/15 13:44:06;;;;;;;1.97;0.87;;;;;;;;;;5030250;28;20210;-68
2022/02/15 13:47:08;;;;;;;1.17;1.03;;;;;;;;;;5031467;28;20195;-66
2022/02/15 13:50:18;;;;;;;2.70;1.10;;;;;;;;;;5042647;28;20198;-65
2022/02/15 13:53:46;;;;;;;1.67;1.00;;;;;;;;;;5034292;28;20628;-66
2022/02/15 13:56:53;;;;;;;3.13;1.43;;;;;;;;;;5037761;28;20198;-68
2022/02/15 13:59:57;;;;;;;2.73;1.30;;;;;;;;;;5038927;28;20645;-67
2022/02/15 14:02:56;;;;;;;2.20;1.10;;;;;;;;;;5039026;28;20249;-67
2022/02/15 14:06:02;;;;;;;1.57;0.97;;;;;;;;;;5021069;28;20680;-65
2022/02/15 14:08:59;;;;;;;3.10;1.07;;;;;;;;;;5014497;28;20848;-66
2022/02/15 14:12:01;;;;;;;2.00;0.97;;;;;;;;;;5042163;28;20206;-64
2022/02/15 14:14:58;;;;;;;1.37;0.97;;;;;;;;;;5028934;28;20263;-65
2022/02/15 14:18:02;;;;;;;1.23;1.03;;;;;;;;;;5038016;28;20202;-66
2022/02/15 14:21:04;;;;;;;1.73;1.00;;;;;;;;;;5033487;28;20199;-68
2022/02/15 14:24:09;;;;;;;1.80;1.00;;;;;;;;;;5039919;28;20217;-68
2022/02/15 14:27:05;;;;;;;2.40;1.20;;;;;;;;;;5040832;28;20213;-66
2022/02/15 14:30:03;;;;;;;2.47;0.90;;;;;;;;;;5040935;28;20803;-65
2022/02/15 14:33:10;;;;;;;1.40;0.80;;;;;;;;;;5032233;28;20224;-66
2022/02/15 14:36:18;;;;;;;2.13;0.90;;;;;;;;;;5029031;28;20344;-67
2022/02/15 14:39:22;;;;;;;2.00;1.20;;;;;;;;;;5035260;28;20198;-68
2022/02/15 14:42:18;;;;;;;4.00;1.23;;;;;;;;;;5039946;28;20199;-68
2022/02/15 14:45:24;;;;;;;2.37;1.20;;;;;;;;;;5038239;28;20260;-65
2022/02/15 14:48:14;;;;;;;2.27;1.10;;;;;;;;;;5040733;28;20274;-66
2022/02/15 14:51:16;;;;;;;2.57;1.30;;;;;;;;;;5030967;28;20210;-65
2022/02/15 14:54:30;;;;;;;2.70;1.07;;;;;;;;;;5043947;28;20230;-65
2022/02/15 14:57:35;;;;;;;2.73;1.10;;;;;;;;;;5042289;28;20790;-66
2022/02/15 15:00:39;;;;;;;2.20;1.43;;;;;;;;;;5037495;28;20288;-65
2022/02/15 15:03:41;;;;;;;2.50;1.10;;;;;;;;;;5026372;28;20222;-65
2022/02/15 15:06:32;;;;;;;2.27;1.33;;;;;;;;;;5035051;28;20194;-68
2022/02/15 15:09:41;;;;;;;1.83;1.20;;;;;;;;;;5041541;28;20198;-67
2022/02/15 15:12:40;;;;;;;2.33;1.47;;;;;;;;;;5026528;28;20202;-68
2022/02/15 15:15:42;;;;;;;3.47;1.40;;;;;;;;;;5024372;28;20214;-67
2022/02/15 15:18:39;;;;;;;3.53;1.70;;;;;;;;;;5042395;28;20758;-67
2022/02/15 15:21:46;;;;;;;2.90;1.23;;;;;;;;;;5037564;28;20300;-66
2022/02/15 15:24:52;;;;;;;3.07;1.30;;;;;;;;;;5030673;28;20206;-65
2022/02/15 15:27:50;;;;;;;1.63;1.00;;;;;;;;;;5021619;28;20206;-66
2022/02/15 15:30:49;;;;;;;3.57;1.13;;;;;;;;;;5022752;28;20284;-66
2022/02/15 15:33:43;;;;;;;4.00;1.27;;;;;;;;;;5043404;28;20294;-65
2022/02/15 15:36:50;;;;;;;3.17;1.10;;;;;;;;;;5018266;28;20276;-68
2022/02/15 15:39:44;;;;;;;2.60;1.20;;;;;;;;;;5040154;28;20249;-67
2022/02/15 15:42:56;;;;;;;3.20;1.13;;;;;;;;;;5031891;28;20683;-66
2022/02/15 15:45:45;;;;;;;3.47;1.30;;;;;;;;;;5041528;28;20250;-65
2022/02/15 15:48:55;;;;;;;2.43;1.30;;;;;;;;;;5034799;28;20297;-66
2022/02/15 15:51:53;;;;;;;2.27;1.20;;;;;;;;;;5040283;28;20199;-65
2022/02/15 15:54:57;;;;;;;1.13;0.90;;;;;;;;;;5038870;28;20241;-65
2022/02/15 15:57:56;;;;;;;2.90;1.27;;;;;;;;;;5040014;28;20204;-65
2022/02/15 16:00:59;;;;;;;3.37;1.20;;;;;;;;;;5036642;28;20226;-68
2022/02/15 16:04:04;;;;;;;2.47;1.00;;;;;;;;;;5041436;28;20263;-67
2022/02/15 16:06:54;;;;;;;2.93;1.30;;;;;;;;;;5025763;28;20827;-67
2022/02/15 16:10:18;;;;;;;5.10;1.50;;;;;;;;;;5031995;28;20356;-65
2022/02/15 16:13:12;;;;;;;4.17;1.37;;;;;;;;;;5031577;28;21488;-66
2022/02/15 16:15:46;;;;;;;2.20;1.10;;;;;;;;;;5041816;28;20214;-66
2022/02/15 16:18:31;;;;;;;1.77;1.00;;;;;;;;;;5031232;28;20199;-67
2022/02/15 16:21:15;;;;;;;3.17;1.27;;;;;;;;;;5044196;28;20319;-67
2022/02/15 16:23:51;;;;;;;3.03;1.10;;;;;;;;;;5044619;28;20242;-69
2022/02/15 16:26:22;;;;;;;2.43;1.13;;;;;;;;;;5040698;28;20212;-64
2022/02/15 16:28:53;;;;;;;3.37;1.27;;;;;;;;;;5030108;28;20195;-63
2022/02/15 16:31:33;;;;;;;3.40;1.40;;;;;;;;;;5034834;28;20283;-67
2022/02/15 16:34:04;;;;;;;4.10;1.40;;;;;;;;;;5024920;28;20540;-67
2022/02/15 16:36:40;;;;;;;2.53;1.17;;;;;;;;;;5026351;28;20218;-67
2022/02/15 16:39:12;;;;;;;6.23;1.23;;;;;;;;;;5043236;28;20217;-67
2022/02/15 16:41:42;;;;;;;3.70;1.30;;;;;;;;;;5047329;28;20353;-71
2022/02/15 16:44:18;;;;;;;3.80;1.87;;;;;;;;;;5040730;28;20257;-68
2022/02/15 16:46:54;;;;;;;2.07;1.23;;;;;;;;;;5031176;28;20679;-71
2022/02/15 16:49:25;;;;;;;2.00;1.30;;;;;;;;;;5045801;28;20287;-66
2022/02/15 16:52:07;;;;;;;3.13;1.20;;;;;;;;;;5044697;28;20282;-65
2022/02/15 16:54:38;;;;;;;5.53;1.90;;;;;;;;;;5040473;28;20275;-64
2022/02/15 16:57:08;;;;;;;4.63;1.97;;;;;;;;;;5055538;28;20202;-64
2022/02/15 16:59:43;;;;;;;4.23;1.67;;;;;;;;;;5036139;28;20217;-64
2022/02/15 17:02:15;;;;;;;3.83;1.53;;;;;;;;;;5030985;28;20509;-66
2022/02/15 17:04:49;;;;;;;4.43;1.70;;;;;;;;;;5024865;28;20257;-66
2022/02/15 17:07:22;;;;;;;3.07;1.60;;;;;;;;;;5039660;28;20542;-65
2022/02/15 17:09:54;;;;;;;3.63;1.40;;;;;;;;;;5030343;28;20624;-65
2022/02/15 17:12:24;;;;;;;4.10;1.77;;;;;;;;;;5029753;28;20205;-66
2022/02/15 17:14:54;;;;;;;3.47;1.50;;;;;;;;;;5041244;28;20672;-65
2022/02/15 17:17:24;;;;;;;4.97;1.80;;;;;;;;;;5047047;28;20190;-65
2022/02/15 17:19:56;;;;;;;3.87;1.73;;;;;;;;;;5036306;28;20401;-65
2022/02/15 17:22:26;;;;;;;2.87;1.40;;;;;;;;;;5047995;28;20856;-65
2022/02/15 17:24:55;;;;;;;2.67;1.50;;;;;;;;;;5040979;28;20721;-65
2022/02/15 17:27:25;;;;;;;3.90;1.37;;;;;;;;;;5027508;28;20291;-65
2022/02/15 17:29:57;;;;;;;3.03;1.40;;;;;;;;;;5025460;28;20390;-65